Time;durP1;ratioP1;P1;durP2;ratioP2;P2;SDS_P1;SDS_P2;PMS_P1;PMS_P2;Temp;Humidity;BMP_temperature;BMP_pressure;BME280_temperature;BME280_humidity;BME280_pressure;Samples;Min_cycle;Max_cycle;Signal;HPM_P1;HPM_P2
2021/04/03 00:00:19;;;;;;;6.22;4.10;;;5.10;89.00;;;;;;5038546;28;20048;-76
2021/04/03 00:02:45;;;;;;;7.13;4.40;;;5.10;89.00;;;;;;5048856;28;20021;-76
2021/04/03 00:05:12;;;;;;;6.93;4.05;;;5.10;89.00;;;;;;5034026;28;20056;-76
2021/04/03 00:07:39;;;;;;;5.78;3.88;;;5.10;89.10;;;;;;5033504;28;20121;-76
2021/04/03 00:10:12;;;;;;;6.13;3.78;;;5.10;89.00;;;;;;5032346;28;20040;-76
2021/04/03 00:12:38;;;;;;;7.00;3.92;;;5.10;89.00;;;;;;5032330;28;20017;-76
2021/04/03 00:15:05;;;;;;;6.10;3.80;;;5.10;88.90;;;;;;5032067;28;20037;-75
2021/04/03 00:17:30;;;;;;;5.97;3.80;;;5.10;89.00;;;;;;5032094;28;20029;-76
2021/04/03 00:19:56;;;;;;;5.90;3.92;;;5.00;89.00;;;;;;5033384;28;20021;-76
2021/04/03 00:22:23;;;;;;;5.85;3.90;;;5.00;88.90;;;;;;5033512;28;20056;-76
2021/04/03 00:24:49;;;;;;;6.75;4.00;;;5.00;88.90;;;;;;5033331;28;20029;-76
2021/04/03 00:27:15;;;;;;;4.97;3.78;;;5.00;88.90;;;;;;5031987;28;20095;-75
2021/04/03 00:29:40;;;;;;;5.78;3.63;;;5.00;89.20;;;;;;5033056;28;20427;-76
2021/04/03 00:32:06;;;;;;;6.82;4.13;;;4.90;89.00;;;;;;5028373;28;20022;-75
2021/04/03 00:34:32;;;;;;;6.13;3.88;;;4.90;89.10;;;;;;5031489;28;20025;-76
2021/04/03 00:36:58;;;;;;;5.57;3.90;;;4.90;89.20;;;;;;5031997;28;20029;-76
2021/04/03 00:39:23;;;;;;;6.07;3.88;;;4.90;89.20;;;;;;5033174;28;20427;-77
2021/04/03 00:41:49;;;;;;;6.30;4.03;;;4.90;89.20;;;;;;5033257;28;20021;-76
2021/04/03 00:44:15;;;;;;;7.38;4.50;;;4.90;89.10;;;;;;5033432;28;20122;-76
2021/04/03 00:46:41;;;;;;;6.03;4.22;;;4.90;89.10;;;;;;5031437;28;20029;-76
2021/04/03 00:49:06;;;;;;;5.38;4.15;;;4.90;89.20;;;;;;5033052;28;20026;-76
2021/04/03 00:51:33;;;;;;;5.57;3.92;;;4.90;89.20;;;;;;5047723;28;20527;-77
2021/04/03 00:54:00;;;;;;;5.95;3.92;;;4.90;89.20;;;;;;5031450;28;20024;-76
2021/04/03 00:56:25;;;;;;;6.45;3.83;;;4.90;89.30;;;;;;5030881;28;20079;-76
2021/04/03 00:58:52;;;;;;;6.53;4.03;;;4.90;89.30;;;;;;5047894;28;20446;-76
2021/04/03 01:01:18;;;;;;;6.82;3.70;;;4.90;89.30;;;;;;5031815;28;20048;-76
2021/04/03 01:03:44;;;;;;;7.35;4.00;;;4.90;89.30;;;;;;5032441;28;20025;-76
2021/04/03 01:06:10;;;;;;;6.72;3.95;;;4.90;89.20;;;;;;5032780;28;20064;-76
2021/04/03 01:08:36;;;;;;;5.50;3.75;;;4.90;89.30;;;;;;5032476;28;20036;-77
2021/04/03 01:11:02;;;;;;;5.47;3.95;;;4.80;89.30;;;;;;5048082;28;20056;-76
2021/04/03 01:13:31;;;;;;;5.32;3.70;;;4.80;89.30;;;;;;5031669;28;20029;-76
2021/04/03 01:16:18;;;;;;;5.95;3.88;;;4.90;89.40;;;;;;5035626;28;20038;-77
2021/04/03 01:19:09;;;;;;;5.97;3.80;;;4.90;89.20;;;;;;5036007;28;20025;-76
2021/04/03 01:21:56;;;;;;;6.47;3.63;;;4.80;89.10;;;;;;5070523;28;20032;-76
2021/04/03 01:25:00;;;;;;;6.95;3.90;;;4.80;89.10;;;;;;5053304;28;20048;-77
2021/04/03 01:27:27;;;;;;;5.15;3.30;;;4.80;89.10;;;;;;5056129;28;20096;-76
2021/04/03 01:30:05;;;;;;;6.47;3.65;;;4.80;89.10;;;;;;5050942;28;20022;-76
2021/04/03 01:32:56;;;;;;;5.95;3.63;;;4.80;89.20;;;;;;5046189;28;20405;-77
2021/04/03 01:35:28;;;;;;;5.97;3.90;;;4.80;89.70;;;;;;5037386;28;20040;-77
2021/04/03 01:38:08;;;;;;;7.80;3.70;;;4.80;89.10;;;;;;5039633;28;20029;-77
2021/04/03 01:40:35;;;;;;;5.68;3.97;;;4.80;89.20;;;;;;5032839;28;20028;-78
2021/04/03 01:43:05;;;;;;;5.80;4.13;;;4.90;89.40;;;;;;5017668;28;20380;-77
2021/04/03 01:45:32;;;;;;;5.95;3.92;;;4.90;89.40;;;;;;5044771;28;20034;-77
2021/04/03 01:47:59;;;;;;;5.88;3.80;;;4.90;89.40;;;;;;5046032;28;20112;-76
2021/04/03 01:50:25;;;;;;;6.72;3.72;;;4.90;89.40;;;;;;5032573;28;20030;-76
2021/04/03 01:52:52;;;;;;;5.90;4.00;;;4.90;89.30;;;;;;5032129;28;20067;-77
2021/04/03 01:55:18;;;;;;;5.72;3.67;;;4.90;89.20;;;;;;5031021;28;20040;-78
2021/04/03 01:57:50;;;;;;;6.53;4.10;;;4.90;89.30;;;;;;5030282;28;20057;-78
2021/04/03 02:00:20;;;;;;;5.85;4.10;;;4.90;89.30;;;;;;5030993;28;20029;-77
2021/04/03 02:02:47;;;;;;;6.88;4.20;;;4.90;89.50;;;;;;5027508;28;20021;-78
2021/04/03 02:05:14;;;;;;;5.75;3.70;;;5.00;89.70;;;;;;5034830;28;20072;-77
2021/04/03 02:07:43;;;;;;;5.68;3.70;;;5.00;90.00;;;;;;5047795;28;20037;-77
2021/04/03 02:10:12;;;;;;;7.53;4.00;;;5.10;90.00;;;;;;5032304;28;20443;-77
2021/04/03 02:12:40;;;;;;;6.60;4.10;;;5.10;89.90;;;;;;5034334;28;20032;-77
2021/04/03 02:15:10;;;;;;;6.38;3.95;;;5.10;89.90;;;;;;5035440;28;20460;-77
2021/04/03 02:17:38;;;;;;;7.00;4.25;;;5.20;89.80;;;;;;5034599;28;20037;-76
2021/04/03 02:20:07;;;;;;;5.68;4.28;;;5.20;89.80;;;;;;5035525;28;20360;-76
2021/04/03 02:22:34;;;;;;;5.68;4.00;;;5.30;89.70;;;;;;5035906;28;20057;-76
2021/04/03 02:25:02;;;;;;;5.78;3.88;;;5.30;89.40;;;;;;5035531;28;20116;-76
2021/04/03 02:27:29;;;;;;;6.97;4.10;;;5.30;89.10;;;;;;5051043;28;20021;-76
2021/04/03 02:29:55;;;;;;;6.88;4.43;;;5.30;88.80;;;;;;5034261;28;20026;-76
2021/04/03 02:32:20;;;;;;;7.07;4.55;;;5.30;88.80;;;;;;5050528;28;20029;-77
2021/04/03 02:34:46;;;;;;;7.97;4.40;;;5.30;88.60;;;;;;5035666;28;20038;-76
2021/04/03 02:37:12;;;;;;;8.13;5.20;;;5.30;89.00;;;;;;5035382;28;20483;-75
2021/04/03 02:39:38;;;;;;;7.88;5.28;;;5.30;89.40;;;;;;5034298;28;20104;-75
2021/04/03 02:42:12;;;;;;;7.47;5.03;;;5.30;88.90;;;;;;5035569;28;20476;-76
2021/04/03 02:44:40;;;;;;;8.05;5.43;;;5.30;88.90;;;;;;5034056;28;20467;-77
2021/04/03 02:47:15;;;;;;;7.70;4.63;;;5.40;89.10;;;;;;5035122;28;20379;-76
2021/04/03 02:49:48;;;;;;;8.75;5.55;;;5.40;89.10;;;;;;5034763;28;20025;-76
2021/04/03 02:52:15;;;;;;;8.23;4.88;;;5.50;88.90;;;;;;5042502;28;20041;-77
2021/04/03 02:54:41;;;;;;;7.82;4.88;;;5.50;88.90;;;;;;5034640;28;20022;-76
2021/04/03 02:57:10;;;;;;;7.10;5.00;;;5.50;88.90;;;;;;5033462;28;20056;-76
2021/04/03 02:59:43;;;;;;;7.70;4.80;;;5.60;88.80;;;;;;5033665;28;20502;-76
2021/04/03 03:02:09;;;;;;;8.93;5.40;;;5.60;88.70;;;;;;5035548;28;20022;-76
2021/04/03 03:04:38;;;;;;;7.90;5.07;;;5.60;88.50;;;;;;5034981;28;20021;-76
2021/04/03 03:07:06;;;;;;;7.32;4.75;;;5.60;88.50;;;;;;5034551;28;20032;-76
2021/04/03 03:09:33;;;;;;;7.78;5.20;;;5.60;88.50;;;;;;5034009;28;20025;-76
2021/04/03 03:12:00;;;;;;;7.68;5.35;;;5.60;88.50;;;;;;5035154;28;20121;-75
2021/04/03 03:14:26;;;;;;;8.18;5.00;;;5.60;88.60;;;;;;5033924;28;20030;-75
2021/04/03 03:16:55;;;;;;;7.40;5.38;;;5.60;88.50;;;;;;5050384;28;20029;-76
2021/04/03 03:19:22;;;;;;;8.68;5.35;;;5.60;88.50;;;;;;5053061;28;20021;-76
2021/04/03 03:21:49;;;;;;;8.93;5.50;;;5.60;88.40;;;;;;5051878;28;20113;-75
2021/04/03 03:24:15;;;;;;;7.95;5.35;;;5.60;88.30;;;;;;5049965;28;20074;-74
2021/04/03 03:26:41;;;;;;;7.25;5.03;;;5.60;88.20;;;;;;5052532;28;20021;-74
2021/04/03 03:29:11;;;;;;;7.32;5.40;;;5.60;88.30;;;;;;5048075;28;20162;-74
2021/04/03 03:31:39;;;;;;;8.93;5.43;;;5.60;88.30;;;;;;5046888;28;20022;-75
2021/04/03 03:34:05;;;;;;;8.65;5.65;;;5.70;88.30;;;;;;5044950;28;20108;-75
2021/04/03 03:36:35;;;;;;;10.43;6.00;;;5.70;88.30;;;;;;5036063;28;20443;-75
2021/04/03 03:39:02;;;;;;;8.20;5.15;;;5.70;88.60;;;;;;5032697;28;20034;-76
2021/04/03 03:41:29;;;;;;;8.25;5.32;;;5.90;89.40;;;;;;5034057;28;20064;-76
2021/04/03 03:43:54;;;;;;;7.80;5.20;;;6.00;89.70;;;;;;5033716;28;20053;-76
2021/04/03 03:46:20;;;;;;;9.93;6.03;;;6.20;89.70;;;;;;5033316;28;20468;-76
2021/04/03 03:48:46;;;;;;;8.55;5.93;;;6.40;89.30;;;;;;5034602;28;20090;-76
2021/04/03 03:51:13;;;;;;;9.95;6.00;;;6.60;89.00;;;;;;5033593;28;20029;-75
2021/04/03 03:53:40;;;;;;;9.48;6.35;;;6.80;88.70;;;;;;5032344;28;20033;-75
2021/04/03 03:56:06;;;;;;;9.70;6.63;;;7.10;89.00;;;;;;5033759;28;20033;-75
2021/04/03 03:58:32;;;;;;;10.10;7.07;;;7.40;89.00;;;;;;5032749;28;20049;-73
2021/04/03 04:00:57;;;;;;;11.90;7.18;;;7.70;88.60;;;;;;5032588;28;20107;-73
2021/04/03 04:03:23;;;;;;;11.93;7.25;;;8.00;87.40;;;;;;5032258;28;20467;-74
2021/04/03 04:05:49;;;;;;;9.95;6.93;;;8.30;87.20;;;;;;5031333;28;20175;-73
2021/04/03 04:08:17;;;;;;;10.32;6.53;;;8.60;86.50;;;;;;5031500;28;20084;-73
2021/04/03 04:10:43;;;;;;;10.32;7.35;;;8.90;85.70;;;;;;5033765;28;20036;-73
2021/04/03 04:13:09;;;;;;;11.50;7.20;;;9.20;84.60;;;;;;5033009;28;20029;-73
2021/04/03 04:15:34;;;;;;;10.27;6.82;;;9.40;83.10;;;;;;5031946;28;20044;-73
2021/04/03 04:18:00;;;;;;;11.32;7.40;;;9.70;82.40;;;;;;5033521;28;20109;-73
2021/04/03 04:20:26;;;;;;;11.18;7.20;;;9.90;81.40;;;;;;5033396;28;20026;-73
2021/04/03 04:22:51;;;;;;;10.63;6.60;;;10.20;80.30;;;;;;5033108;28;20472;-73
2021/04/03 04:25:17;;;;;;;11.93;7.20;;;10.50;79.60;;;;;;5033053;28;20040;-74
2021/04/03 04:27:43;;;;;;;11.45;7.13;;;10.80;78.30;;;;;;5033585;28;20472;-73
2021/04/03 04:30:09;;;;;;;11.57;7.22;;;11.20;77.50;;;;;;5032862;28;20033;-74
2021/04/03 04:32:37;;;;;;;10.38;7.43;;;11.40;76.00;;;;;;5034941;28;20048;-73
2021/04/03 04:35:04;;;;;;;11.02;8.05;;;11.70;74.10;;;;;;5038681;28;20111;-73
2021/04/03 04:37:30;;;;;;;11.70;7.10;;;11.90;73.00;;;;;;5031195;28;20033;-71
2021/04/03 04:39:56;;;;;;;10.30;7.13;;;12.20;73.10;;;;;;5047190;28;20373;-73
2021/04/03 04:42:21;;;;;;;9.02;7.18;;;12.60;71.90;;;;;;5032150;28;20328;-76
2021/04/03 04:44:47;;;;;;;10.45;7.80;;;12.90;70.50;;;;;;5030941;28;20499;-75
2021/04/03 04:47:13;;;;;;;11.35;7.93;;;13.20;70.00;;;;;;5031386;28;20141;-74
2021/04/03 04:49:38;;;;;;;12.05;8.20;;;13.40;68.20;;;;;;5031475;28;20029;-74
2021/04/03 04:52:05;;;;;;;11.85;8.60;;;13.50;67.10;;;;;;5033172;28;20037;-74
2021/04/03 04:54:30;;;;;;;11.03;8.63;;;13.70;66.70;;;;;;5032289;28;20041;-74
2021/04/03 04:56:56;;;;;;;13.20;9.77;;;13.90;66.00;;;;;;5030991;28;20041;-74
2021/04/03 04:59:22;;;;;;;13.60;9.85;;;14.10;65.40;;;;;;5047208;28;20392;-74
2021/04/03 05:01:47;;;;;;;13.40;10.07;;;14.30;64.30;;;;;;5025967;28;20025;-73
2021/04/03 05:04:13;;;;;;;13.43;9.68;;;14.40;63.20;;;;;;5031410;28;20476;-73
2021/04/03 05:06:38;;;;;;;13.05;9.48;;;14.60;62.80;;;;;;5032281;28;20530;-73
2021/04/03 05:09:04;;;;;;;16.58;10.75;;;14.70;62.20;;;;;;5031792;28;20479;-76
2021/04/03 05:11:30;;;;;;;12.77;9.65;;;14.80;61.30;;;;;;5034224;28;20471;-72
2021/04/03 05:13:56;;;;;;;13.45;10.18;;;15.00;61.10;;;;;;5031504;28;20033;-74
2021/04/03 05:16:22;;;;;;;14.60;9.93;;;15.20;60.50;;;;;;5035550;28;20040;-73
2021/04/03 05:18:47;;;;;;;13.38;10.20;;;15.40;59.70;;;;;;5033980;28;20022;-74
2021/04/03 05:21:13;;;;;;;16.25;10.75;;;15.50;58.80;;;;;;5052531;28;20817;-77
2021/04/03 05:23:39;;;;;;;15.23;11.32;;;15.70;58.80;;;;;;5056062;28;20025;-75
2021/04/03 05:26:04;;;;;;;14.88;10.32;;;15.80;58.10;;;;;;5055185;28;20029;-74
2021/04/03 05:28:30;;;;;;;13.65;10.18;;;16.10;58.70;;;;;;5033611;28;20524;-74
2021/04/03 05:30:56;;;;;;;14.93;10.82;;;16.50;57.40;;;;;;5031912;28;20380;-72
2021/04/03 05:33:22;;;;;;;12.15;9.77;;;16.80;56.60;;;;;;5032614;28;20028;-74
2021/04/03 05:35:47;;;;;;;12.93;9.30;;;17.00;56.00;;;;;;5028954;28;20030;-73
2021/04/03 05:38:13;;;;;;;13.20;9.70;;;17.10;54.50;;;;;;5032049;28;20091;-76
2021/04/03 05:40:39;;;;;;;12.07;9.20;;;17.20;54.00;;;;;;5030214;28;20024;-78
2021/04/03 05:43:05;;;;;;;12.40;8.85;;;17.20;52.90;;;;;;5030125;28;20053;-78
2021/04/03 05:45:38;;;;;;;12.57;8.45;;;17.00;52.30;;;;;;5031985;28;20391;-77
2021/04/03 05:48:05;;;;;;;12.68;8.82;;;16.90;52.20;;;;;;5030829;28;20133;-77
2021/04/03 05:50:32;;;;;;;12.25;9.40;;;16.40;52.10;;;;;;5027470;28;20080;-77
2021/04/03 05:52:59;;;;;;;13.32;10.00;;;16.40;53.00;;;;;;5032226;28;20026;-77
2021/04/03 05:55:26;;;;;;;13.13;9.30;;;16.70;53.30;;;;;;5036142;28;20037;-76
2021/04/03 05:57:51;;;;;;;13.82;9.85;;;17.20;52.70;;;;;;5025038;28;20049;-79
2021/04/03 06:00:18;;;;;;;16.65;9.43;;;17.50;51.70;;;;;;5030334;28;20022;-79
2021/04/03 06:02:43;;;;;;;12.02;9.18;;;17.50;50.70;;;;;;5022704;28;20030;-80
2021/04/03 06:05:09;;;;;;;13.30;9.07;;;17.60;50.70;;;;;;5016959;28;20036;-79
2021/04/03 06:07:36;;;;;;;13.55;9.40;;;17.70;50.30;;;;;;5020789;28;20028;-78
2021/04/03 06:10:03;;;;;;;12.63;8.93;;;18.00;50.00;;;;;;5019997;28;20022;-79
2021/04/03 06:12:41;;;;;;;10.15;7.65;;;18.20;49.00;;;;;;5034777;28;20475;-80
2021/04/03 06:15:10;;;;;;;10.63;8.35;;;18.20;48.20;;;;;;5040516;28;20043;-80
2021/04/03 06:17:36;;;;;;;10.82;8.73;;;18.30;48.20;;;;;;5021910;28;20021;-79
2021/04/03 06:20:02;;;;;;;10.82;7.85;;;18.40;47.90;;;;;;5024504;28;20040;-79
2021/04/03 06:22:41;;;;;;;10.05;8.00;;;18.50;47.40;;;;;;5026654;28;20440;-79
2021/04/03 06:25:07;;;;;;;10.35;7.65;;;18.50;47.10;;;;;;5030129;28;20030;-79
2021/04/03 06:27:32;;;;;;;9.82;7.80;;;18.70;47.10;;;;;;5034711;28;20053;-79
2021/04/03 06:29:58;;;;;;;10.35;7.60;;;19.00;47.00;;;;;;5027639;28;20045;-79
2021/04/03 06:32:29;;;;;;;10.45;7.63;;;19.40;46.50;;;;;;5022987;28;20037;-82
2021/04/03 06:34:55;;;;;;;10.55;7.43;;;19.50;45.80;;;;;;5040899;28;20052;-75
2021/04/03 06:37:27;;;;;;;9.40;7.35;;;19.60;45.50;;;;;;5018487;28;20018;-72
2021/04/03 06:40:13;;;;;;;8.68;7.18;;;19.70;44.50;;;;;;5016477;28;20026;-72
2021/04/03 06:42:44;;;;;;;10.52;8.00;;;19.70;44.60;;;;;;5018969;28;20052;-72
2021/04/03 06:45:19;;;;;;;10.73;7.60;;;19.80;44.20;;;;;;5029413;28;20053;-74
2021/04/03 06:47:49;;;;;;;9.85;7.53;;;20.00;44.20;;;;;;5047897;28;20051;-73
2021/04/03 06:50:17;;;;;;;10.25;7.20;;;20.10;43.70;;;;;;5020702;28;20036;-74
2021/04/03 06:52:43;;;;;;;9.23;6.68;;;20.00;43.60;;;;;;5027696;28;20065;-75
2021/04/03 06:55:11;;;;;;;10.10;7.40;;;20.00;43.10;;;;;;5030752;28;20038;-73
2021/04/03 06:57:40;;;;;;;10.57;7.55;;;20.20;42.90;;;;;;5022720;28;20063;-74
2021/04/03 07:00:06;;;;;;;9.18;6.75;;;20.40;42.90;;;;;;5019621;28;20030;-74
2021/04/03 07:02:38;;;;;;;9.73;6.97;;;20.70;42.60;;;;;;5025552;28;20033;-75
2021/04/03 07:05:05;;;;;;;9.50;6.72;;;20.80;42.00;;;;;;5023798;28;20079;-75
2021/04/03 07:07:34;;;;;;;10.35;6.65;;;20.90;41.90;;;;;;5023873;28;20037;-75
2021/04/03 07:10:01;;;;;;;10.38;6.88;;;21.20;41.30;;;;;;5027065;28;20032;-74
2021/04/03 07:12:28;;;;;;;9.07;6.32;;;21.50;40.80;;;;;;5022762;28;20025;-72
2021/04/03 07:14:56;;;;;;;7.43;5.25;;;21.70;40.20;;;;;;5035234;28;20392;-75
2021/04/03 07:17:22;;;;;;;9.35;5.25;;;21.90;39.30;;;;;;5035331;28;20029;-75
2021/04/03 07:19:49;;;;;;;8.77;6.30;;;21.90;39.00;;;;;;5037504;28;20026;-74
2021/04/03 07:22:16;;;;;;;8.23;5.45;;;22.00;38.60;;;;;;5037716;28;20032;-73
2021/04/03 07:24:42;;;;;;;7.50;5.30;;;22.10;38.30;;;;;;5032509;28;20026;-74
2021/04/03 07:27:08;;;;;;;7.15;5.03;;;22.10;38.00;;;;;;5024208;28;20028;-74
2021/04/03 07:29:49;;;;;;;6.45;4.70;;;22.30;38.00;;;;;;5016646;28;20117;-73
2021/04/03 07:32:37;;;;;;;10.07;4.88;;;22.30;37.40;;;;;;5044762;28;20113;-75
2021/04/03 07:35:24;;;;;;;6.93;4.50;;;22.40;37.50;;;;;;5024588;28;20065;-74
2021/04/03 07:37:51;;;;;;;6.72;4.35;;;22.60;37.30;;;;;;5033522;28;20021;-74
2021/04/03 07:40:23;;;;;;;6.50;4.28;;;22.70;36.40;;;;;;5018018;28;20033;-74
2021/04/03 07:42:49;;;;;;;8.15;4.15;;;22.90;36.10;;;;;;5038861;28;20383;-74
2021/04/03 07:45:30;;;;;;;7.10;4.30;;;22.80;35.70;;;;;;5024817;28;20035;-75
2021/04/03 07:47:56;;;;;;;5.30;3.42;;;22.80;35.70;;;;;;5025631;28;20103;-74
2021/04/03 07:50:44;;;;;;;5.90;3.47;;;22.90;35.50;;;;;;5028919;28;20430;-73
2021/04/03 07:53:10;;;;;;;5.60;3.95;;;22.90;34.80;;;;;;5033128;28;20026;-74
2021/04/03 07:55:37;;;;;;;6.35;3.60;;;23.10;34.70;;;;;;5026418;28;20099;-74
2021/04/03 07:58:18;;;;;;;6.03;3.75;;;23.20;34.30;;;;;;5025354;28;20081;-74
2021/04/03 08:00:45;;;;;;;5.45;3.40;;;23.40;34.40;;;;;;5026022;28;20022;-73
2021/04/03 08:03:11;;;;;;;5.68;3.38;;;23.40;33.70;;;;;;5033978;28;20019;-74
2021/04/03 08:05:37;;;;;;;5.18;3.50;;;23.20;33.40;;;;;;5025325;28;20100;-74
2021/04/03 08:08:08;;;;;;;5.97;3.40;;;23.20;33.20;;;;;;5033889;28;20040;-73
2021/04/03 08:10:34;;;;;;;4.85;3.35;;;23.30;33.00;;;;;;5033862;28;20379;-73
2021/04/03 08:13:00;;;;;;;5.28;3.35;;;23.30;32.90;;;;;;5034294;28;20025;-73
2021/04/03 08:15:27;;;;;;;5.47;3.20;;;23.30;32.30;;;;;;5049463;28;20030;-73
2021/04/03 08:17:54;;;;;;;5.00;3.00;;;23.40;32.50;;;;;;5023466;28;20026;-73
2021/04/03 08:20:20;;;;;;;4.30;3.20;;;23.70;32.20;;;;;;5029087;28;20030;-74
2021/04/03 08:23:06;;;;;;;4.40;3.03;;;24.00;31.70;;;;;;5034314;28;20079;-73
2021/04/03 08:25:33;;;;;;;4.80;2.88;;;24.00;31.00;;;;;;5033868;28;20109;-73
2021/04/03 08:28:16;;;;;;;5.93;2.78;;;23.90;31.20;;;;;;5032709;28;20026;-73
2021/04/03 08:30:42;;;;;;;4.35;2.70;;;24.10;30.90;;;;;;5033535;28;20068;-73
2021/04/03 08:33:13;;;;;;;4.53;2.70;;;24.30;31.00;;;;;;5033498;28;20053;-73
2021/04/03 08:35:42;;;;;;;3.42;2.50;;;24.30;30.20;;;;;;5033536;28;20116;-73
2021/04/03 08:38:36;;;;;;;3.97;2.33;;;24.00;30.00;;;;;;5033493;28;20483;-73
2021/04/03 08:41:04;;;;;;;3.85;2.33;;;23.90;30.30;;;;;;5032115;28;20026;-73
2021/04/03 08:43:31;;;;;;;3.60;2.30;;;23.90;30.00;;;;;;5022371;28;20053;-73
2021/04/03 08:46:08;;;;;;;5.47;2.55;;;23.90;29.70;;;;;;5043925;28;20544;-73
2021/04/03 08:48:37;;;;;;;3.65;2.28;;;24.10;30.00;;;;;;5033478;28;20028;-73
2021/04/03 08:51:05;;;;;;;3.38;1.92;;;24.10;29.70;;;;;;5031633;28;20041;-73
2021/04/03 08:54:00;;;;;;;3.67;2.30;;;24.10;29.20;;;;;;5048559;28;20132;-73
2021/04/03 08:56:35;;;;;;;3.83;2.00;;;24.20;29.10;;;;;;5032478;28;20041;-73
2021/04/03 08:59:06;;;;;;;3.75;1.90;;;24.00;28.80;;;;;;5033975;28;20060;-74
2021/04/03 09:01:34;;;;;;;4.32;1.60;;;24.10;28.80;;;;;;5036983;28;20040;-74
2021/04/03 09:04:06;;;;;;;2.38;1.60;;;24.20;28.40;;;;;;5035829;28;20380;-74
2021/04/03 09:06:54;;;;;;;3.40;1.88;;;24.00;28.50;;;;;;5035350;28;20131;-73
2021/04/03 09:09:22;;;;;;;2.85;1.80;;;24.20;29.50;;;;;;5025680;28;20038;-73
2021/04/03 09:11:57;;;;;;;4.50;2.03;;;24.20;28.80;;;;;;5036797;28;20395;-72
2021/04/03 09:14:30;;;;;;;2.58;1.77;;;23.70;28.80;;;;;;5035427;28;20025;-73
2021/04/03 09:16:57;;;;;;;2.95;1.60;;;23.60;28.70;;;;;;5036186;28;20044;-73
2021/04/03 09:19:27;;;;;;;5.03;2.00;;;23.30;28.50;;;;;;5034704;28;20083;-73
2021/04/03 09:21:54;;;;;;;3.45;2.25;;;22.80;28.90;;;;;;5032092;28;20036;-73
2021/04/03 09:24:42;;;;;;;4.63;2.28;;;22.10;29.50;;;;;;5032835;28;20448;-72
2021/04/03 09:27:16;;;;;;;4.07;2.33;;;22.60;30.40;;;;;;5032775;28;20026;-72
2021/04/03 09:29:47;;;;;;;4.07;2.00;;;23.20;30.20;;;;;;5024783;28;20088;-71
2021/04/03 09:32:15;;;;;;;3.53;2.08;;;23.60;29.50;;;;;;5028361;28;20420;-71
2021/04/03 09:34:42;;;;;;;3.95;2.03;;;23.70;29.10;;;;;;5032685;28;20456;-72
2021/04/03 09:37:26;;;;;;;3.47;1.73;;;23.80;28.90;;;;;;5032760;28;20101;-72
2021/04/03 09:39:52;;;;;;;5.10;1.92;;;23.80;29.30;;;;;;5023613;28;20061;-73
2021/04/03 09:42:24;;;;;;;3.20;1.70;;;24.00;29.00;;;;;;5026898;28;20029;-74
2021/04/03 09:44:51;;;;;;;3.47;1.70;;;24.30;29.00;;;;;;5020132;28;20025;-73
2021/04/03 09:47:17;;;;;;;3.45;1.80;;;24.30;28.40;;;;;;5032864;28;20021;-73
2021/04/03 09:49:45;;;;;;;3.83;1.80;;;24.40;28.60;;;;;;5032674;28;20029;-73
2021/04/03 09:52:13;;;;;;;3.25;1.83;;;24.70;28.20;;;;;;5032918;28;20026;-73
2021/04/03 09:54:40;;;;;;;4.95;1.63;;;24.80;28.00;;;;;;5031353;28;20025;-73
2021/04/03 09:57:06;;;;;;;3.00;1.65;;;24.90;27.90;;;;;;5030987;28;20156;-73
2021/04/03 09:59:32;;;;;;;3.00;1.75;;;24.80;27.60;;;;;;5031482;28;20021;-73
2021/04/03 10:01:59;;;;;;;3.90;1.98;;;24.60;27.70;;;;;;5032407;28;20046;-73
2021/04/03 10:04:28;;;;;;;2.60;1.45;;;24.40;27.60;;;;;;5032444;28;20068;-74
2021/04/03 10:06:54;;;;;;;2.58;1.52;;;24.10;27.60;;;;;;5032379;28;20033;-73
2021/04/03 10:09:21;;;;;;;3.78;1.73;;;24.00;27.50;;;;;;5031618;28;20022;-73
2021/04/03 10:11:48;;;;;;;2.60;1.70;;;23.90;27.70;;;;;;5032442;28;20029;-73
2021/04/03 10:14:14;;;;;;;3.15;1.60;;;24.10;28.10;;;;;;5031450;28;20120;-72
2021/04/03 10:16:40;;;;;;;2.63;1.63;;;24.30;27.50;;;;;;5031156;28;20036;-73
2021/04/03 10:19:06;;;;;;;3.55;1.50;;;24.50;28.00;;;;;;5047335;28;20108;-73
2021/04/03 10:21:32;;;;;;;3.45;1.80;;;24.60;27.50;;;;;;5031367;28;20120;-73
2021/04/03 10:23:58;;;;;;;3.00;1.63;;;24.70;27.60;;;;;;5018919;28;20025;-73
2021/04/03 10:26:24;;;;;;;2.75;1.73;;;24.80;27.40;;;;;;5036248;28;20033;-73
2021/04/03 10:28:50;;;;;;;2.03;1.30;;;25.10;27.70;;;;;;5036070;28;20025;-73
2021/04/03 10:31:17;;;;;;;2.28;1.50;;;25.10;27.20;;;;;;5035840;28;20021;-73
2021/04/03 10:33:43;;;;;;;3.78;1.90;;;24.90;26.80;;;;;;5035977;28;20487;-73
2021/04/03 10:36:09;;;;;;;4.25;1.40;;;24.70;27.10;;;;;;5035837;28;20032;-73
2021/04/03 10:38:36;;;;;;;2.05;1.33;;;24.70;26.80;;;;;;5036140;28;20032;-73
2021/04/03 10:41:03;;;;;;;2.85;1.70;;;24.30;26.70;;;;;;5031989;28;20028;-73
2021/04/03 10:43:29;;;;;;;3.00;1.60;;;24.00;26.80;;;;;;5026012;28;20029;-73
2021/04/03 10:45:55;;;;;;;3.22;1.88;;;23.90;26.90;;;;;;5034232;28;20434;-72
2021/04/03 10:48:20;;;;;;;3.63;2.15;;;23.80;27.00;;;;;;5034233;28;20031;-73
2021/04/03 10:50:46;;;;;;;3.75;1.65;;;23.90;27.10;;;;;;5035723;28;20029;-73
2021/04/03 10:53:12;;;;;;;2.83;1.52;;;24.00;27.10;;;;;;5035862;28;20045;-73
2021/04/03 10:55:39;;;;;;;3.72;1.70;;;24.20;27.10;;;;;;5025123;28;20112;-73
2021/04/03 10:58:05;;;;;;;5.50;2.20;;;24.20;26.80;;;;;;5040164;28;20528;-74
2021/04/03 11:00:31;;;;;;;3.45;1.90;;;24.00;26.60;;;;;;5040722;28;20057;-73
2021/04/03 11:02:57;;;;;;;5.20;1.92;;;23.90;26.70;;;;;;5040662;28;20033;-73
2021/04/03 11:05:23;;;;;;;3.15;1.70;;;23.90;26.80;;;;;;5039742;28;20197;-73
2021/04/03 11:07:49;;;;;;;5.10;1.75;;;23.90;26.80;;;;;;5037433;28;20086;-73
2021/04/03 11:10:15;;;;;;;2.65;1.60;;;23.90;26.80;;;;;;5055119;28;20037;-73
2021/04/03 11:12:41;;;;;;;2.13;1.40;;;24.00;26.80;;;;;;5041281;28;20026;-73
2021/04/03 11:15:08;;;;;;;3.15;1.60;;;24.10;26.90;;;;;;5036899;28;20108;-73
2021/04/03 11:17:34;;;;;;;4.07;1.88;;;23.90;27.00;;;;;;5035716;28;20091;-73
2021/04/03 11:20:00;;;;;;;3.67;1.80;;;23.80;26.70;;;;;;5035188;28;20037;-73
2021/04/03 11:22:26;;;;;;;2.72;1.67;;;23.50;26.50;;;;;;5035176;28;20025;-72
2021/04/03 11:24:52;;;;;;;4.82;1.90;;;23.20;26.60;;;;;;5035218;28;20029;-72
2021/04/03 11:27:18;;;;;;;3.17;1.80;;;23.30;26.80;;;;;;5050012;28;20025;-73
2021/04/03 11:29:44;;;;;;;4.75;2.08;;;23.40;26.60;;;;;;5034968;28;20025;-73
2021/04/03 11:32:09;;;;;;;4.20;1.90;;;23.40;26.60;;;;;;5034620;28;20025;-73
2021/04/03 11:34:35;;;;;;;3.65;1.92;;;23.20;26.40;;;;;;5034725;28;20028;-72
2021/04/03 11:37:01;;;;;;;3.00;1.58;;;23.10;26.40;;;;;;5033923;28;20045;-73
2021/04/03 11:39:26;;;;;;;3.03;1.70;;;22.50;26.40;;;;;;5049924;28;20075;-72
2021/04/03 11:41:52;;;;;;;3.67;1.80;;;21.90;26.90;;;;;;5035113;28;20510;-72
2021/04/03 11:44:18;;;;;;;3.95;2.30;;;21.80;27.40;;;;;;5034544;28;20036;-72
2021/04/03 11:46:43;;;;;;;3.70;1.98;;;21.80;27.20;;;;;;5034426;28;20025;-72
2021/04/03 11:49:09;;;;;;;3.38;1.70;;;21.50;27.00;;;;;;5034687;28;20348;-72
2021/04/03 11:51:35;;;;;;;3.88;1.88;;;21.30;27.20;;;;;;5034947;28;20018;-72
2021/04/03 11:54:01;;;;;;;4.28;2.00;;;21.00;27.20;;;;;;5034396;28;20025;-72
2021/04/03 11:56:27;;;;;;;3.55;1.90;;;20.90;27.50;;;;;;5034219;28;20030;-72
2021/04/03 11:58:53;;;;;;;2.55;1.70;;;20.80;28.40;;;;;;5033887;28;20045;-75
2021/04/03 12:01:19;;;;;;;3.08;1.65;;;20.80;27.90;;;;;;5032934;28;20654;-72
2021/04/03 12:03:44;;;;;;;4.53;1.80;;;20.60;27.50;;;;;;5034602;28;20104;-72
2021/04/03 12:06:10;;;;;;;2.90;1.55;;;20.30;27.50;;;;;;5034212;28;20064;-72
2021/04/03 12:08:36;;;;;;;2.88;1.60;;;19.90;27.40;;;;;;5020080;28;20037;-73
2021/04/03 12:11:01;;;;;;;3.78;2.10;;;19.40;27.70;;;;;;5034097;28;20018;-72
2021/04/03 12:13:27;;;;;;;5.07;1.90;;;18.90;28.20;;;;;;5032568;28;20084;-72
2021/04/03 12:15:53;;;;;;;3.50;1.98;;;18.50;28.50;;;;;;5033870;28;20040;-72
2021/04/03 12:18:19;;;;;;;3.53;1.80;;;18.00;28.70;;;;;;5034123;28;20037;-72
2021/04/03 12:20:45;;;;;;;2.97;1.98;;;17.70;29.10;;;;;;5033893;28;20027;-72
2021/04/03 12:23:11;;;;;;;3.05;1.98;;;17.50;29.50;;;;;;5033734;28;20022;-72
2021/04/03 12:25:37;;;;;;;3.63;2.10;;;17.40;29.80;;;;;;5029767;28;20112;-72
2021/04/03 12:28:03;;;;;;;6.80;2.20;;;17.40;29.90;;;;;;5018428;28;20149;-72
2021/04/03 12:30:30;;;;;;;2.50;1.70;;;17.30;30.00;;;;;;5028707;28;20053;-71
2021/04/03 12:32:56;;;;;;;2.30;1.80;;;17.30;29.90;;;;;;5032488;28;20124;-72
2021/04/03 12:35:22;;;;;;;5.20;2.40;;;17.20;30.00;;;;;;5032494;28;20040;-72
2021/04/03 12:37:48;;;;;;;4.72;2.30;;;17.00;30.40;;;;;;5033395;28;20022;-72
2021/04/03 12:40:14;;;;;;;3.85;2.17;;;16.80;30.70;;;;;;5033646;28;20395;-72
2021/04/03 12:42:40;;;;;;;5.72;2.35;;;16.50;30.80;;;;;;5033340;28;20033;-72
2021/04/03 12:45:08;;;;;;;3.65;1.98;;;16.30;30.90;;;;;;5033304;28;20526;-74
2021/04/03 12:47:33;;;;;;;4.68;2.10;;;16.20;30.80;;;;;;5032481;28;20520;-72
2021/04/03 12:49:59;;;;;;;3.40;2.08;;;16.00;30.80;;;;;;5033801;28;20068;-72
2021/04/03 12:52:25;;;;;;;4.65;2.42;;;15.70;30.90;;;;;;5022193;28;20029;-72